Time,TemperatureF,DewpointF,PressureIn,WindDirection,WindDirectionDegrees,WindSpeedMPH,WindSpeedGustMPH,Humidity,HourlyPrecipIn,Conditions,Clouds,dailyrainin,SoftwareType,DateUTC
2013-04-21 00:01:00,58.3,39.8,30.10,SSE,150,0.0,3.0,50,0.00,,---,0.00,VWS V14.01,2013-04-21 05:01:00,
2013-04-21 00:06:00,58.0,39.5,30.11,SSE,150,0.0,3.0,50,0.00,,---,0.00,VWS V14.01,2013-04-21 05:06:00,
2013-04-21 00:11:00,57.5,39.0,30.11,SSE,150,1.0,1.0,50,0.00,,---,0.00,VWS V14.01,2013-04-21 05:11:00,
2013-04-21 00:16:00,57.5,39.0,30.11,SSE,150,0.0,2.0,50,0.00,,---,0.00,VWS V14.01,2013-04-21 05:16:00,
2013-04-21 00:21:00,57.3,38.8,30.11,ESE,108,0.0,4.0,50,0.00,,---,0.00,VWS V14.01,2013-04-21 05:21:00,
2013-04-21 00:26:00,57.2,38.8,30.11,SSE,161,7.0,7.0,50,0.00,,---,0.00,VWS V14.01,2013-04-21 05:26:00,
2013-04-21 00:31:00,57.2,40.2,30.11,ESE,114,0.0,7.0,53,0.00,,---,0.00,VWS V14.01,2013-04-21 05:31:00,
2013-04-21 00:36:00,57.2,40.2,30.11,ESE,116,0.0,7.0,53,0.00,,---,0.00,VWS V14.01,2013-04-21 05:36:00,
2013-04-21 00:41:00,57.0,40.1,30.11,SE,136,0.0,4.0,53,0.00,,---,0.00,VWS V14.01,2013-04-21 05:41:00,
2013-04-21 00:46:00,57.0,40.1,30.11,ESE,117,2.0,4.0,53,0.00,,---,0.00,VWS V14.01,2013-04-21 05:46:00,
2013-04-21 00:51:00,56.9,40.0,30.11,South,175,3.0,7.0,53,0.00,,---,0.00,VWS V14.01,2013-04-21 05:51:00,
2013-04-21 00:56:00,56.9,40.0,30.11,ESE,114,0.0,3.0,53,0.00,,---,0.00,VWS V14.01,2013-04-21 05:56:00,
2013-04-21 01:01:00,56.9,40.0,30.11,SE,146,3.0,3.0,53,0.00,,---,0.00,VWS V14.01,2013-04-21 06:01:00,
2013-04-21 01:06:00,57.0,40.1,30.10,SE,141,2.0,3.0,53,0.00,,---,0.00,VWS V14.01,2013-04-21 06:06:00,
2013-04-21 01:11:00,57.0,40.1,30.10,SE,138,0.0,3.0,53,0.00,,---,0.00,VWS V14.01,2013-04-21 06:11:00,
2013-04-21 01:16:00,57.0,40.1,30.10,SSE,161,0.0,3.0,53,0.00,,---,0.00,VWS V14.01,2013-04-21 06:16:00,
2013-04-21 01:21:00,57.0,40.1,30.10,SE,139,6.0,6.0,53,0.00,,---,0.00,VWS V14.01,2013-04-21 06:21:00,
2013-04-21 01:26:00,57.2,39.2,30.10,ESE,111,1.0,6.0,51,0.00,,---,0.00,VWS V14.01,2013-04-21 06:26:00,
2013-04-21 01:31:00,57.2,39.2,30.10,ESE,109,0.0,6.0,51,0.00,,---,0.00,VWS V14.01,2013-04-21 06:31:00,
2013-04-21 01:36:00,57.2,39.2,30.10,ESE,111,1.0,6.0,51,0.00,,---,0.00,VWS V14.01,2013-04-21 06:36:00,
2013-04-21 01:41:00,57.2,39.2,30.10,SE,139,0.0,1.0,51,0.00,,---,0.00,VWS V14.01,2013-04-21 06:41:00,
2013-04-21 01:46:00,57.2,39.2,30.10,SE,134,0.0,1.0,51,0.00,,---,0.00,VWS V14.01,2013-04-21 06:46:00,
2013-04-21 01:51:00,57.0,39.6,30.10,SSE,166,0.0,2.0,52,0.00,,---,0.00,VWS V14.01,2013-04-21 06:51:00,
2013-04-21 01:56:00,57.0,39.6,30.10,ENE,64,0.0,2.0,52,0.00,,---,0.00,VWS V14.01,2013-04-21 06:56:00,
2013-04-21 02:01:00,56.9,39.5,30.10,SSE,159,0.0,2.0,52,0.00,,---,0.00,VWS V14.01,2013-04-21 07:01:00,
2013-04-21 02:06:00,56.7,39.3,30.10,SE,138,1.0,3.0,52,0.00,,---,0.00,VWS V14.01,2013-04-21 07:06:00,
2013-04-21 02:11:00,56.6,39.2,30.10,ESE,114,0.0,3.0,52,0.00,,---,0.00,VWS V14.01,2013-04-21 07:11:00,
2013-04-21 02:16:00,56.5,39.1,30.10,ESE,121,0.0,3.0,52,0.00,,---,0.00,VWS V14.01,2013-04-21 07:16:00,
2013-04-21 02:21:00,56.5,39.1,30.09,SE,128,0.0,3.0,52,0.00,,---,0.00,VWS V14.01,2013-04-21 07:21:00,
2013-04-21 02:26:00,56.5,39.1,30.09,SSE,161,6.0,6.0,52,0.00,,---,0.00,VWS V14.01,2013-04-21 07:26:00,
2013-04-21 02:31:00,56.3,38.9,30.09,SSW,207,0.0,6.0,52,0.00,,---,0.00,VWS V14.01,2013-04-21 07:31:00,
2013-04-21 02:36:00,56.2,38.8,30.08,SE,144,3.0,6.0,52,0.00,,---,0.00,VWS V14.01,2013-04-21 07:36:00,
2013-04-21 02:41:00,56.2,38.8,30.08,South,171,0.0,3.0,52,0.00,,---,0.00,VWS V14.01,2013-04-21 07:41:00,
2013-04-21 02:46:00,56.2,38.8,30.08,ESE,117,2.0,3.0,52,0.00,,---,0.00,VWS V14.01,2013-04-21 07:46:00,
2013-04-21 02:51:00,55.9,38.5,30.08,SSE,149,0.0,4.0,52,0.00,,---,0.00,VWS V14.01,2013-04-21 07:51:00,
2013-04-21 02:56:00,55.9,38.5,30.08,SE,145,1.0,2.0,52,0.00,,---,0.00,VWS V14.01,2013-04-21 07:56:00,
2013-04-21 03:01:00,55.6,39.2,30.08,SSE,151,1.0,2.0,54,0.00,,---,0.00,VWS V14.01,2013-04-21 08:01:00,
2013-04-21 03:06:00,55.6,39.2,30.08,NNE,30,0.0,2.0,54,0.00,,---,0.00,VWS V14.01,2013-04-21 08:06:00,
2013-04-21 03:11:00,55.4,39.0,30.08,NNE,31,0.0,0.0,54,0.00,,---,0.00,VWS V14.01,2013-04-21 08:11:00,
2013-04-21 03:16:00,55.4,39.0,30.08,NNE,31,0.0,0.0,54,0.00,,---,0.00,VWS V14.01,2013-04-21 08:16:00,
2013-04-21 03:21:00,55.1,38.8,30.09,NNE,31,0.0,0.0,54,0.00,,---,0.00,VWS V14.01,2013-04-21 08:21:00,
2013-04-21 03:26:00,54.8,38.5,30.09,NNE,31,0.0,0.0,54,0.00,,---,0.00,VWS V14.01,2013-04-21 08:26:00,
2013-04-21 03:31:00,54.7,38.4,30.09,South,174,0.0,3.0,54,0.00,,---,0.00,VWS V14.01,2013-04-21 08:31:00,
2013-04-21 03:36:00,54.4,38.1,30.09,ESE,115,0.0,3.0,54,0.00,,---,0.00,VWS V14.01,2013-04-21 08:36:00,
2013-04-21 03:41:00,54.4,38.1,30.09,ESE,115,0.0,0.0,54,0.00,,---,0.00,VWS V14.01,2013-04-21 08:41:00,
2013-04-21 03:46:00,54.1,37.8,30.09,ESE,115,0.0,0.0,54,0.00,,---,0.00,VWS V14.01,2013-04-21 08:46:00,
2013-04-21 03:51:00,53.8,37.6,30.09,ESE,116,0.0,0.0,54,0.00,,---,0.00,VWS V14.01,2013-04-21 08:51:00,
2013-04-21 03:56:00,53.6,37.4,30.09,ESE,116,0.0,0.0,54,0.00,,---,0.00,VWS V14.01,2013-04-21 08:56:00,
2013-04-21 04:01:00,53.5,40.4,30.09,ESE,116,0.0,1.0,61,0.00,,---,0.00,VWS V14.01,2013-04-21 09:01:00,
2013-04-21 04:06:00,53.5,40.4,30.09,ESE,110,0.0,1.0,61,0.00,,---,0.00,VWS V14.01,2013-04-21 09:06:00,
2013-04-21 04:11:00,52.9,39.8,30.09,ESE,110,0.0,0.0,61,0.00,,---,0.00,VWS V14.01,2013-04-21 09:11:00,
2013-04-21 04:16:00,52.6,39.5,30.09,South,169,0.0,2.0,61,0.00,,---,0.00,VWS V14.01,2013-04-21 09:16:00,
2013-04-21 04:21:00,52.3,39.3,30.09,SSE,150,0.0,4.0,61,0.00,,---,0.00,VWS V14.01,2013-04-21 09:21:00,
2013-04-21 04:26:00,52.2,39.2,30.09,SE,146,0.0,0.0,61,0.00,,---,0.00,VWS V14.01,2013-04-21 09:26:00,
2013-04-21 04:31:00,52.0,40.2,30.09,SE,144,0.0,3.0,64,0.00,,---,0.00,VWS V14.01,2013-04-21 09:31:00,
2013-04-21 04:36:00,51.9,40.1,30.09,SE,130,0.0,3.0,64,0.00,,---,0.00,VWS V14.01,2013-04-21 09:36:00,
2013-04-21 04:41:00,51.9,40.1,30.09,SE,130,0.0,0.0,64,0.00,,---,0.00,VWS V14.01,2013-04-21 09:41:00,
2013-04-21 04:46:00,51.9,40.1,30.09,SE,145,0.0,0.0,64,0.00,,---,0.00,VWS V14.01,2013-04-21 09:46:00,
2013-04-21 04:51:00,51.9,40.1,30.09,SE,130,3.0,3.0,64,0.00,,---,0.00,VWS V14.01,2013-04-21 09:51:00,
2013-04-21 04:56:00,51.6,39.8,30.09,SSE,167,0.0,3.0,64,0.00,,---,0.00,VWS V14.01,2013-04-21 09:56:00,
2013-04-21 05:01:00,51.6,39.8,30.09,SSE,162,0.0,4.0,64,0.00,,---,0.00,VWS V14.01,2013-04-21 10:01:00,
2013-04-21 05:06:00,51.6,39.8,30.10,SSE,162,0.0,4.0,64,0.00,,---,0.00,VWS V14.01,2013-04-21 10:06:00,
2013-04-21 05:11:00,51.4,39.7,30.10,North,350,2.0,2.0,64,0.00,,---,0.00,VWS V14.01,2013-04-21 10:11:00,
2013-04-21 05:16:00,51.6,39.8,30.10,East,99,0.0,3.0,64,0.00,,---,0.00,VWS V14.01,2013-04-21 10:16:00,
2013-04-21 05:21:00,51.6,39.8,30.09,SE,124,0.0,3.0,64,0.00,,---,0.00,VWS V14.01,2013-04-21 10:21:00,
2013-04-21 05:26:00,51.6,39.8,30.09,SE,146,0.0,2.0,64,0.00,,---,0.00,VWS V14.01,2013-04-21 10:26:00,
2013-04-21 05:31:00,51.6,39.8,30.09,East,80,0.0,2.0,64,0.00,,---,0.00,VWS V14.01,2013-04-21 10:31:00,
2013-04-21 05:36:00,51.7,39.9,30.10,ESE,115,0.0,2.0,64,0.00,,---,0.00,VWS V14.01,2013-04-21 10:36:00,
2013-04-21 05:41:00,51.7,39.9,30.10,ESE,119,0.0,1.0,64,0.00,,---,0.00,VWS V14.01,2013-04-21 10:41:00,
2013-04-21 05:46:00,51.7,39.9,30.10,East,98,0.0,1.0,64,0.00,,---,0.00,VWS V14.01,2013-04-21 10:46:00,
2013-04-21 05:51:00,51.7,39.9,30.10,East,98,0.0,1.0,64,0.00,,---,0.00,VWS V14.01,2013-04-21 10:51:00,
2013-04-21 05:55:00,51.7,39.9,30.10,East,98,0.0,0.0,64,0.00,,---,0.00,VWS V14.01,2013-04-21 10:55:00,
2013-04-21 06:00:00,51.7,39.9,30.10,East,98,0.0,0.0,64,0.00,,---,0.00,VWS V14.01,2013-04-21 11:00:00,
2013-04-21 06:05:00,51.6,39.8,30.12,East,98,0.0,0.0,64,0.00,,---,0.00,VWS V14.01,2013-04-21 11:05:00,
2013-04-21 06:10:00,51.4,39.7,30.12,East,98,0.0,0.0,64,0.00,,---,0.00,VWS V14.01,2013-04-21 11:10:00,
2013-04-21 06:15:00,51.3,39.5,30.12,East,98,0.0,0.0,64,0.00,,---,0.00,VWS V14.01,2013-04-21 11:15:00,
2013-04-21 06:20:00,51.3,39.5,30.12,East,98,0.0,0.0,64,0.00,,---,0.00,VWS V14.01,2013-04-21 11:20:00,
2013-04-21 06:25:00,51.0,39.3,30.12,East,98,0.0,0.0,64,0.00,,---,0.00,VWS V14.01,2013-04-21 11:25:00,
2013-04-21 06:30:00,50.8,39.1,30.12,East,98,0.0,0.0,64,0.00,,---,0.00,VWS V14.01,2013-04-21 11:30:00,
2013-04-21 06:35:00,50.8,39.1,30.12,East,98,2.0,2.0,64,0.00,,---,0.00,VWS V14.01,2013-04-21 11:35:00,
2013-04-21 06:40:00,50.8,39.1,30.12,East,98,0.0,0.0,64,0.00,,---,0.00,VWS V14.01,2013-04-21 11:40:00,
2013-04-21 06:45:00,50.8,39.1,30.12,ENE,67,0.0,2.0,64,0.00,,---,0.00,VWS V14.01,2013-04-21 11:45:00,
2013-04-21 06:50:00,50.1,38.4,30.12,ENE,67,0.0,2.0,64,0.00,,---,0.00,VWS V14.01,2013-04-21 11:50:00,
2013-04-21 06:55:00,50.1,38.4,30.13,ENE,67,0.0,0.0,64,0.00,,---,0.00,VWS V14.01,2013-04-21 11:55:00,
2013-04-21 07:00:00,50.1,38.4,30.13,ENE,67,0.0,0.0,64,0.00,,---,0.00,VWS V14.01,2013-04-21 12:00:00,
2013-04-21 07:05:00,49.8,38.1,30.15,ENE,67,0.0,0.0,64,0.00,,---,0.00,VWS V14.01,2013-04-21 12:05:00,
2013-04-21 07:10:00,49.6,37.9,30.15,ENE,67,0.0,0.0,64,0.00,,---,0.00,VWS V14.01,2013-04-21 12:10:00,
2013-04-21 07:15:00,49.5,37.8,30.15,ENE,67,0.0,0.0,64,0.00,,---,0.00,VWS V14.01,2013-04-21 12:15:00,
2013-04-21 07:20:00,49.5,37.8,30.15,ENE,67,0.0,0.0,64,0.00,,---,0.00,VWS V14.01,2013-04-21 12:20:00,
2013-04-21 07:25:00,49.4,40.4,30.15,ENE,67,0.0,0.0,71,0.00,,---,0.00,VWS V14.01,2013-04-21 12:25:00,
2013-04-21 07:30:00,49.4,40.4,30.15,ENE,67,0.0,0.0,71,0.00,,---,0.00,VWS V14.01,2013-04-21 12:30:00,
2013-04-21 07:35:00,49.4,40.4,30.15,ENE,67,0.0,0.0,71,0.00,,---,0.00,VWS V14.01,2013-04-21 12:35:00,
2013-04-21 07:40:00,49.4,41.1,30.15,ENE,67,0.0,0.0,73,0.00,,---,0.00,VWS V14.01,2013-04-21 12:40:00,
2013-04-21 07:45:00,49.4,41.1,30.15,ENE,67,0.0,0.0,73,0.00,,---,0.00,VWS V14.01,2013-04-21 12:45:00,
2013-04-21 07:50:00,49.5,41.2,30.15,NNE,28,0.0,0.0,73,0.00,,---,0.00,VWS V14.01,2013-04-21 12:50:00,
2013-04-21 07:55:00,49.6,41.3,30.15,NNE,28,0.0,0.0,73,0.00,,---,0.00,VWS V14.01,2013-04-21 12:55:00,
2013-04-21 08:00:00,49.9,41.6,30.15,ENE,68,0.0,2.0,73,0.00,,---,0.00,VWS V14.01,2013-04-21 13:00:00,
2013-04-21 08:05:00,50.4,42.1,30.15,ENE,69,0.0,2.0,73,0.00,,---,0.00,VWS V14.01,2013-04-21 13:05:00,
2013-04-21 08:10:00,50.5,42.2,30.15,ENE,69,0.0,0.0,73,0.00,,---,0.00,VWS V14.01,2013-04-21 13:10:00,
2013-04-21 08:15:00,51.3,43.0,30.15,ENE,68,0.0,0.0,73,0.00,,---,0.00,VWS V14.01,2013-04-21 13:15:00,
2013-04-21 08:20:00,51.6,43.2,30.15,SE,124,0.0,0.0,73,0.00,,---,0.00,VWS V14.01,2013-04-21 13:20:00,
2013-04-21 08:25:00,52.5,44.1,30.16,SE,126,0.0,0.0,73,0.00,,---,0.00,VWS V14.01,2013-04-21 13:25:00,
2013-04-21 08:30:00,53.3,44.9,30.16,SE,127,0.0,2.0,73,0.00,,---,0.00,VWS V14.01,2013-04-21 13:30:00,
2013-04-21 08:35:00,53.3,44.9,30.16,SE,127,0.0,2.0,73,0.00,,---,0.00,VWS V14.01,2013-04-21 13:35:00,
2013-04-21 08:40:00,54.5,46.0,30.16,ESE,117,0.0,2.0,73,0.00,,---,0.00,VWS V14.01,2013-04-21 13:40:00,
2013-04-21 08:45:00,54.5,46.0,30.16,SSE,166,4.0,4.0,73,0.00,,---,0.00,VWS V14.01,2013-04-21 13:45:00,
2013-04-21 08:50:00,57.8,49.2,30.16,SSE,167,3.0,5.0,73,0.00,,---,0.00,VWS V14.01,2013-04-21 13:50:00,
2013-04-21 08:55:00,59.0,39.9,30.16,SE,125,2.0,3.0,49,0.00,,---,0.00,VWS V14.01,2013-04-21 13:55:00,
2013-04-21 09:00:00,59.8,40.6,30.16,SE,140,1.0,6.0,49,0.00,,---,0.00,VWS V14.01,2013-04-21 14:00:00,
2013-04-21 09:05:00,60.5,41.8,30.16,SSW,200,3.0,6.0,50,0.00,,---,0.00,VWS V14.01,2013-04-21 14:05:00,
2013-04-21 09:10:00,61.5,42.7,30.16,ESE,111,2.0,3.0,50,0.00,,---,0.00,VWS V14.01,2013-04-21 14:10:00,
2013-04-21 09:15:00,61.5,42.7,30.16,SSE,155,2.0,4.0,50,0.00,,---,0.00,VWS V14.01,2013-04-21 14:15:00,
2013-04-21 09:20:00,61.5,42.7,30.16,WNW,289,0.0,4.0,50,0.00,,---,0.00,VWS V14.01,2013-04-21 14:20:00,
2013-04-21 09:25:00,62.7,43.8,30.16,SSW,203,2.0,2.0,50,0.00,,---,0.00,VWS V14.01,2013-04-21 14:25:00,
2013-04-21 09:30:00,63.2,44.3,30.16,ENE,75,2.0,3.0,50,0.00,,---,0.00,VWS V14.01,2013-04-21 14:30:00,
2013-04-21 09:35:00,63.9,44.9,30.16,SW,232,2.0,3.0,50,0.00,,---,0.00,VWS V14.01,2013-04-21 14:35:00,
2013-04-21 09:40:00,64.3,45.3,30.16,SSW,202,0.0,0.0,50,0.00,,---,0.00,VWS V14.01,2013-04-21 14:40:00,
2013-04-21 09:45:00,64.5,45.5,30.16,SSE,155,0.0,0.0,50,0.00,,---,0.00,VWS V14.01,2013-04-21 14:45:00,
2013-04-21 09:50:00,64.8,45.7,30.16,NNW,342,0.0,6.0,50,0.00,,---,0.00,VWS V14.01,2013-04-21 14:50:00,
2013-04-21 09:55:00,65.3,46.2,30.17,SSW,212,0.0,2.0,50,0.00,,---,0.00,VWS V14.01,2013-04-21 14:55:00,
2013-04-21 10:00:00,65.8,46.7,30.17,SSE,163,4.0,4.0,50,0.00,,---,0.00,VWS V14.01,2013-04-21 15:00:00,
2013-04-21 10:05:00,65.6,46.5,30.17,South,191,6.0,6.0,50,0.00,,---,0.00,VWS V14.01,2013-04-21 15:05:00,
2013-04-21 10:10:00,65.6,46.5,30.17,SSE,150,6.0,6.0,50,0.00,,---,0.00,VWS V14.01,2013-04-21 15:10:00,
2013-04-21 10:15:00,65.6,46.5,30.17,SE,137,4.0,6.0,50,0.00,,---,0.00,VWS V14.01,2013-04-21 15:15:00,
2013-04-21 10:20:00,66.0,46.8,30.17,SSW,198,3.0,6.0,50,0.00,,---,0.00,VWS V14.01,2013-04-21 15:20:00,
2013-04-21 10:25:00,66.0,46.8,30.18,NNE,24,3.0,3.0,50,0.00,,---,0.00,VWS V14.01,2013-04-21 15:25:00,
2013-04-21 10:30:00,65.5,46.4,30.18,SE,139,3.0,3.0,50,0.00,,---,0.00,VWS V14.01,2013-04-21 15:30:00,
2013-04-21 10:35:00,65.0,40.1,30.18,SSW,198,2.0,3.0,40,0.00,,---,0.00,VWS V14.01,2013-04-21 15:35:00,
2013-04-21 10:40:00,65.2,40.3,30.18,South,170,0.0,3.0,40,0.00,,---,0.00,VWS V14.01,2013-04-21 15:40:00,
2013-04-21 10:45:00,65.5,41.8,30.18,SSW,203,4.0,4.0,42,0.00,,---,0.00,VWS V14.01,2013-04-21 15:45:00,
2013-04-21 10:50:00,66.9,43.1,30.18,SSE,150,0.0,4.0,42,0.00,,---,0.00,VWS V14.01,2013-04-21 15:50:00,
2013-04-21 10:55:00,67.4,43.5,30.18,SW,221,6.0,6.0,42,0.00,,---,0.00,VWS V14.01,2013-04-21 15:55:00,
2013-04-21 11:00:00,66.9,43.1,30.18,SSW,198,3.0,6.0,42,0.00,,---,0.00,VWS V14.01,2013-04-21 16:00:00,
2013-04-21 11:05:00,66.8,43.0,30.18,SSE,150,0.0,6.0,42,0.00,,---,0.00,VWS V14.01,2013-04-21 16:05:00,
2013-04-21 11:10:00,66.1,42.4,30.17,East,96,1.0,3.0,42,0.00,,---,0.00,VWS V14.01,2013-04-21 16:10:00,
2013-04-21 11:15:00,65.3,41.6,30.17,SW,218,0.0,5.0,42,0.00,,---,0.00,VWS V14.01,2013-04-21 16:15:00,
2013-04-21 11:20:00,64.8,41.2,30.17,SW,221,0.0,5.0,42,0.00,,---,0.00,VWS V14.01,2013-04-21 16:20:00,
2013-04-21 11:25:00,64.8,41.2,30.17,ESE,110,0.0,4.0,42,0.00,,---,0.00,VWS V14.01,2013-04-21 16:25:00,
2013-04-21 11:30:00,65.5,41.2,30.17,SSE,161,3.0,4.0,41,0.00,,---,0.00,VWS V14.01,2013-04-21 16:30:00,
2013-04-21 11:35:00,66.4,42.0,30.17,SE,129,0.0,4.0,41,0.00,,---,0.00,VWS V14.01,2013-04-21 16:35:00,
2013-04-21 11:40:00,66.4,40.7,30.16,South,182,3.0,3.0,39,0.00,,---,0.00,VWS V14.01,2013-04-21 16:40:00,
2013-04-21 11:45:00,66.9,41.2,30.16,South,179,0.0,3.0,39,0.00,,---,0.00,VWS V14.01,2013-04-21 16:45:00,
2013-04-21 11:50:00,66.6,40.9,30.16,South,184,0.0,3.0,39,0.00,,---,0.00,VWS V14.01,2013-04-21 16:50:00,
2013-04-21 11:55:00,67.4,41.6,30.16,SW,217,4.0,4.0,39,0.00,,---,0.00,VWS V14.01,2013-04-21 16:55:00,
2013-04-21 12:00:00,67.4,41.6,30.16,SSW,195,6.0,6.0,39,0.00,,---,0.00,VWS V14.01,2013-04-21 17:00:00,
2013-04-21 12:05:00,67.4,41.6,30.16,SE,140,0.0,6.0,39,0.00,,---,0.00,VWS V14.01,2013-04-21 17:05:00,
2013-04-21 12:10:00,68.9,37.8,30.16,SSE,150,1.0,6.0,32,0.00,,---,0.00,VWS V14.01,2013-04-21 17:10:00,
2013-04-21 12:15:00,68.1,37.2,30.16,East,89,0.0,6.0,32,0.00,,---,0.00,VWS V14.01,2013-04-21 17:15:00,
2013-04-21 12:20:00,67.6,36.7,30.16,South,177,3.0,6.0,32,0.00,,---,0.00,VWS V14.01,2013-04-21 17:20:00,
2013-04-21 12:25:00,67.6,38.3,30.15,South,169,0.0,0.0,34,0.00,,---,0.00,VWS V14.01,2013-04-21 17:25:00,
2013-04-21 12:30:00,67.6,35.9,30.15,SW,226,3.0,6.0,31,0.00,,---,0.00,VWS V14.01,2013-04-21 17:30:00,
2013-04-21 12:35:00,68.8,39.3,30.15,SE,146,0.0,6.0,34,0.00,,---,0.00,VWS V14.01,2013-04-21 17:35:00,
2013-04-21 12:40:00,69.3,39.8,30.14,SSE,147,0.0,1.0,34,0.00,,---,0.00,VWS V14.01,2013-04-21 17:40:00,
2013-04-21 12:45:00,70.9,41.2,30.14,NE,36,6.0,6.0,34,0.00,,---,0.00,VWS V14.01,2013-04-21 17:45:00,
2013-04-21 12:50:00,69.3,39.8,30.14,ESE,113,0.0,6.0,34,0.00,,---,0.00,VWS V14.01,2013-04-21 17:50:00,
2013-04-21 12:55:00,69.4,39.8,30.13,SSW,213,2.0,9.0,34,0.00,,---,0.00,VWS V14.01,2013-04-21 17:55:00,
2013-04-21 13:00:00,70.6,40.9,30.13,NE,52,2.0,9.0,34,0.00,,---,0.00,VWS V14.01,2013-04-21 18:00:00,
2013-04-21 13:05:00,69.9,40.3,30.13,East,96,0.0,9.0,34,0.00,,---,0.00,VWS V14.01,2013-04-21 18:05:00,
2013-04-21 13:10:00,69.1,39.6,30.12,ESE,108,5.0,5.0,34,0.00,,---,0.00,VWS V14.01,2013-04-21 18:10:00,
2013-04-21 13:15:00,69.4,39.8,30.12,SE,134,0.0,5.0,34,0.00,,---,0.00,VWS V14.01,2013-04-21 18:15:00,
2013-04-21 13:20:00,67.6,40.4,30.12,ESE,108,0.0,6.0,37,0.00,,---,0.00,VWS V14.01,2013-04-21 18:20:00,
2013-04-21 13:25:00,68.6,41.3,30.12,SSE,156,3.0,4.0,37,0.00,,---,0.00,VWS V14.01,2013-04-21 18:25:00,
2013-04-21 13:30:00,68.9,40.9,30.12,SSE,161,2.0,4.0,36,0.00,,---,0.00,VWS V14.01,2013-04-21 18:30:00,
2013-04-21 13:35:00,68.9,40.9,30.12,SE,124,0.0,4.0,36,0.00,,---,0.00,VWS V14.01,2013-04-21 18:35:00,
2013-04-21 13:40:00,67.8,39.9,30.10,ESE,103,2.0,3.0,36,0.00,,---,0.00,VWS V14.01,2013-04-21 18:40:00,
2013-04-21 13:45:00,67.8,39.9,30.10,NE,40,1.0,6.0,36,0.00,,---,0.00,VWS V14.01,2013-04-21 18:45:00,
2013-04-21 13:50:00,68.6,39.1,30.10,East,94,0.0,7.0,34,0.00,,---,0.00,VWS V14.01,2013-04-21 18:50:00,
2013-04-21 13:55:00,69.6,40.0,30.10,East,98,2.0,2.0,34,0.00,,---,0.00,VWS V14.01,2013-04-21 18:55:00,
2013-04-21 14:00:00,70.1,40.5,30.10,SE,134,1.0,5.0,34,0.00,,---,0.00,VWS V14.01,2013-04-21 19:00:00,
2013-04-21 14:05:00,69.6,40.0,30.10,West,263,0.0,7.0,34,0.00,,---,0.00,VWS V14.01,2013-04-21 19:05:00,
2013-04-21 14:10:00,70.6,40.9,30.10,SE,134,2.0,4.0,34,0.00,,---,0.00,VWS V14.01,2013-04-21 19:10:00,
2013-04-21 14:15:00,71.3,42.3,30.10,SSW,207,4.0,6.0,35,0.00,,---,0.00,VWS V14.01,2013-04-21 19:15:00,
2013-04-21 14:20:00,70.6,41.7,30.10,NNE,27,6.0,6.0,35,0.00,,---,0.00,VWS V14.01,2013-04-21 19:20:00,
2013-04-21 14:25:00,70.3,41.4,30.09,South,178,0.0,4.0,35,0.00,,---,0.00,VWS V14.01,2013-04-21 19:25:00,
2013-04-21 14:30:00,70.3,41.4,30.09,NE,38,2.0,4.0,35,0.00,,---,0.00,VWS V14.01,2013-04-21 19:30:00,
2013-04-21 14:35:00,70.9,41.9,30.09,NNW,345,4.0,4.0,35,0.00,,---,0.00,VWS V14.01,2013-04-21 19:35:00,
2013-04-21 14:40:00,70.9,40.4,30.09,NE,52,0.0,5.0,33,0.00,,---,0.00,VWS V14.01,2013-04-21 19:40:00,
2013-04-21 14:45:00,70.8,40.3,30.09,South,174,0.0,5.0,33,0.00,,---,0.00,VWS V14.01,2013-04-21 19:45:00,
2013-04-21 14:50:00,71.1,40.6,30.09,ESE,110,0.0,5.0,33,0.00,,---,0.00,VWS V14.01,2013-04-21 19:50:00,
2013-04-21 14:55:00,71.3,40.7,30.08,East,99,2.0,5.0,33,0.00,,---,0.00,VWS V14.01,2013-04-21 19:55:00,
2013-04-21 15:00:00,70.6,40.9,30.08,South,184,2.0,5.0,34,0.00,,---,0.00,VWS V14.01,2013-04-21 20:00:00,
2013-04-21 15:05:00,71.8,42.0,30.08,ENE,74,1.0,5.0,34,0.00,,---,0.00,VWS V14.01,2013-04-21 20:05:00,
2013-04-21 15:10:00,70.6,40.9,30.07,North,350,0.0,3.0,34,0.00,,---,0.00,VWS V14.01,2013-04-21 20:10:00,
2013-04-21 15:15:00,70.4,40.7,30.07,SE,140,0.0,3.0,34,0.00,,---,0.00,VWS V14.01,2013-04-21 20:15:00,
2013-04-21 15:20:00,71.6,41.8,30.07,East,97,1.0,4.0,34,0.00,,---,0.00,VWS V14.01,2013-04-21 20:20:00,
2013-04-21 15:25:00,71.6,41.8,30.07,SSE,148,0.0,2.0,34,0.00,,---,0.00,VWS V14.01,2013-04-21 20:25:00,
2013-04-21 15:30:00,71.6,38.6,30.07,SSE,166,2.0,2.0,30,0.00,,---,0.00,VWS V14.01,2013-04-21 20:30:00,
2013-04-21 15:35:00,72.5,39.3,30.07,SSE,165,2.0,2.0,30,0.00,,---,0.00,VWS V14.01,2013-04-21 20:35:00,
2013-04-21 15:40:00,72.1,39.0,30.05,South,172,4.0,6.0,30,0.00,,---,0.00,VWS V14.01,2013-04-21 20:40:00,
2013-04-21 15:45:00,72.0,40.6,30.05,SSE,147,0.0,6.0,32,0.00,,---,0.00,VWS V14.01,2013-04-21 20:45:00,
2013-04-21 15:50:00,72.0,40.6,30.05,SE,128,10.0,10.0,32,0.00,,---,0.00,VWS V14.01,2013-04-21 20:50:00,
2013-04-21 15:55:00,72.5,41.0,30.05,SSE,163,7.0,7.0,32,0.00,,---,0.00,VWS V14.01,2013-04-21 20:55:00,
2013-04-21 16:00:00,72.5,41.0,30.05,SE,124,0.0,7.0,32,0.00,,---,0.00,VWS V14.01,2013-04-21 21:00:00,
2013-04-21 16:05:00,71.5,37.6,30.05,ENE,68,0.0,7.0,29,0.00,,---,0.00,VWS V14.01,2013-04-21 21:05:00,
2013-04-21 16:10:00,71.6,37.7,30.05,East,91,0.0,6.0,29,0.00,,---,0.00,VWS V14.01,2013-04-21 21:10:00,
2013-04-21 16:15:00,71.8,37.9,30.05,East,98,3.0,6.0,29,0.00,,---,0.00,VWS V14.01,2013-04-21 21:15:00,
2013-04-21 16:20:00,71.6,37.7,30.05,East,83,3.0,6.0,29,0.00,,---,0.00,VWS V14.01,2013-04-21 21:20:00,
2013-04-21 16:25:00,71.6,36.8,30.04,East,88,0.0,4.0,28,0.00,,---,0.00,VWS V14.01,2013-04-21 21:25:00,
2013-04-21 16:30:00,71.8,37.9,30.04,SE,129,2.0,5.0,29,0.00,,---,0.00,VWS V14.01,2013-04-21 21:30:00,
2013-04-21 16:35:00,72.0,38.0,30.04,North,360,3.0,7.0,29,0.00,,---,0.00,VWS V14.01,2013-04-21 21:35:00,
2013-04-21 16:40:00,72.0,38.0,30.04,SE,128,5.0,5.0,29,0.00,,---,0.00,VWS V14.01,2013-04-21 21:40:00,
2013-04-21 16:45:00,72.0,38.0,30.04,East,96,5.0,5.0,29,0.00,,---,0.00,VWS V14.01,2013-04-21 21:45:00,
2013-04-21 16:50:00,71.6,37.7,30.04,East,101,0.0,5.0,29,0.00,,---,0.00,VWS V14.01,2013-04-21 21:50:00,
2013-04-21 16:55:00,71.6,37.7,30.04,ENE,63,0.0,2.0,29,0.00,,---,0.00,VWS V14.01,2013-04-21 21:55:00,
2013-04-21 17:00:00,71.6,37.7,30.04,East,95,0.0,2.0,29,0.00,,---,0.00,VWS V14.01,2013-04-21 22:00:00,
2013-04-21 17:05:00,71.6,37.7,30.04,SW,234,3.0,3.0,29,0.00,,---,0.00,VWS V14.01,2013-04-21 22:05:00,
2013-04-21 17:10:00,72.1,38.1,30.04,SW,215,0.0,2.0,29,0.00,,---,0.00,VWS V14.01,2013-04-21 22:10:00,
2013-04-21 17:15:00,71.8,37.9,30.04,South,187,0.0,2.0,29,0.00,,---,0.00,VWS V14.01,2013-04-21 22:15:00,
2013-04-21 17:20:00,71.8,37.9,30.04,SSE,163,1.0,3.0,29,0.00,,---,0.00,VWS V14.01,2013-04-21 22:20:00,
2013-04-21 17:25:00,70.9,37.1,30.03,SE,134,0.0,5.0,29,0.00,,---,0.00,VWS V14.01,2013-04-21 22:25:00,
2013-04-21 17:30:00,70.9,36.2,30.03,SW,217,0.0,5.0,28,0.00,,---,0.00,VWS V14.01,2013-04-21 22:30:00,
2013-04-21 17:35:00,70.4,35.8,30.03,WSW,242,4.0,5.0,28,0.00,,---,0.00,VWS V14.01,2013-04-21 22:35:00,
2013-04-21 17:40:00,70.8,36.1,30.03,South,171,4.0,4.0,28,0.00,,---,0.00,VWS V14.01,2013-04-21 22:40:00,
2013-04-21 17:45:00,70.6,35.9,30.03,NE,55,0.0,4.0,28,0.00,,---,0.00,VWS V14.01,2013-04-21 22:45:00,
2013-04-21 17:50:00,69.9,35.3,30.03,East,88,0.0,4.0,28,0.00,,---,0.00,VWS V14.01,2013-04-21 22:50:00,
2013-04-21 17:55:00,69.8,35.3,30.03,NNE,14,0.0,0.0,28,0.00,,---,0.00,VWS V14.01,2013-04-21 22:55:00,
2013-04-21 18:00:00,69.8,38.6,30.03,ESE,113,0.0,4.0,32,0.00,,---,0.00,VWS V14.01,2013-04-21 23:00:00,
2013-04-21 18:05:00,70.1,38.9,30.03,ESE,119,0.0,4.0,32,0.00,,---,0.00,VWS V14.01,2013-04-21 23:05:00,
2013-04-21 18:10:00,70.3,39.1,30.03,ESE,113,0.0,0.0,32,0.00,,---,0.00,VWS V14.01,2013-04-21 23:10:00,
2013-04-21 18:15:00,70.1,38.9,30.03,NE,38,0.0,5.0,32,0.00,,---,0.00,VWS V14.01,2013-04-21 23:15:00,
2013-04-21 18:20:00,69.8,38.6,30.03,ENE,78,0.0,5.0,32,0.00,,---,0.00,VWS V14.01,2013-04-21 23:20:00,
2013-04-21 18:25:00,69.6,38.5,30.02,East,79,1.0,1.0,32,0.00,,---,0.00,VWS V14.01,2013-04-21 23:25:00,
2013-04-21 18:30:00,69.6,38.5,30.02,East,96,0.0,2.0,32,0.00,,---,0.00,VWS V14.01,2013-04-21 23:30:00,
2013-04-21 18:35:00,69.4,38.3,30.02,SSE,153,1.0,4.0,32,0.00,,---,0.00,VWS V14.01,2013-04-21 23:35:00,
2013-04-21 18:40:00,69.4,38.3,30.02,SSE,149,2.0,2.0,32,0.00,,---,0.00,VWS V14.01,2013-04-21 23:40:00,
2013-04-21 18:45:00,69.3,38.2,30.02,ENE,69,0.0,2.0,32,0.00,,---,0.00,VWS V14.01,2013-04-21 23:45:00,
2013-04-21 18:50:00,69.1,38.0,30.02,SSE,167,0.0,3.0,32,0.00,,---,0.00,VWS V14.01,2013-04-21 23:50:00,
2013-04-21 18:55:00,68.9,37.8,30.03,North,355,4.0,4.0,32,0.00,,---,0.00,VWS V14.01,2013-04-21 23:55:00,
2013-04-21 19:00:00,68.6,37.6,30.03,ESE,111,0.0,4.0,32,0.00,,---,0.00,VWS V14.01,2013-04-22 00:00:00,
2013-04-21 19:05:00,68.3,38.9,30.03,North,360,1.0,4.0,34,0.00,,---,0.00,VWS V14.01,2013-04-22 00:05:00,
2013-04-21 19:10:00,68.3,38.9,30.03,NE,51,0.0,1.0,34,0.00,,---,0.00,VWS V14.01,2013-04-22 00:10:00,
2013-04-21 19:15:00,67.8,38.4,30.03,ENE,74,0.0,1.0,34,0.00,,---,0.00,VWS V14.01,2013-04-22 00:15:00,
2013-04-21 19:19:00,67.4,38.1,30.03,ENE,75,0.0,1.0,34,0.00,,---,0.00,VWS V14.01,2013-04-22 00:19:00,
2013-04-21 19:24:00,67.4,38.1,30.03,NNE,30,0.0,2.0,34,0.00,,---,0.00,VWS V14.01,2013-04-22 00:24:00,
2013-04-21 19:29:00,67.3,38.0,30.03,NNE,30,0.0,2.0,34,0.00,,---,0.00,VWS V14.01,2013-04-22 00:29:00,
2013-04-21 19:34:00,66.9,37.7,30.03,NE,55,0.0,2.0,34,0.00,,---,0.00,VWS V14.01,2013-04-22 00:34:00,
2013-04-21 19:39:00,66.0,36.8,30.03,NE,55,0.0,0.0,34,0.00,,---,0.00,VWS V14.01,2013-04-22 00:39:00,
2013-04-21 19:44:00,65.6,36.5,30.03,NE,55,0.0,0.0,34,0.00,,---,0.00,VWS V14.01,2013-04-22 00:44:00,
2013-04-21 19:49:00,65.3,41.0,30.03,NE,55,0.0,0.0,41,0.00,,---,0.00,VWS V14.01,2013-04-22 00:49:00,
2013-04-21 19:54:00,64.3,40.1,30.04,NE,55,0.0,0.0,41,0.00,,---,0.00,VWS V14.01,2013-04-22 00:54:00,
2013-04-21 19:59:00,64.0,39.8,30.04,NE,55,0.0,0.0,41,0.00,,---,0.00,VWS V14.01,2013-04-22 00:59:00,
2013-04-21 20:04:00,63.7,39.6,30.04,NE,55,0.0,0.0,41,0.00,,---,0.00,VWS V14.01,2013-04-22 01:04:00,
2013-04-21 20:09:00,63.1,39.0,30.04,NE,55,0.0,0.0,41,0.00,,---,0.00,VWS V14.01,2013-04-22 01:09:00,
2013-04-21 20:14:00,62.4,38.4,30.04,NE,55,0.0,0.0,41,0.00,,---,0.00,VWS V14.01,2013-04-22 01:14:00,
2013-04-21 20:19:00,62.4,38.4,30.04,NE,55,0.0,0.0,41,0.00,,---,0.00,VWS V14.01,2013-04-22 01:19:00,
2013-04-21 20:24:00,61.8,37.9,30.05,NE,55,0.0,0.0,41,0.00,,---,0.00,VWS V14.01,2013-04-22 01:24:00,
2013-04-21 20:29:00,61.3,37.4,30.05,NE,55,0.0,0.0,41,0.00,,---,0.00,VWS V14.01,2013-04-22 01:29:00,
2013-04-21 20:34:00,61.0,37.2,30.05,NE,55,0.0,0.0,41,0.00,,---,0.00,VWS V14.01,2013-04-22 01:34:00,
2013-04-21 20:39:00,61.0,37.2,30.05,NE,55,0.0,0.0,41,0.00,,---,0.00,VWS V14.01,2013-04-22 01:39:00,
2013-04-21 20:44:00,60.5,42.8,30.05,NE,55,0.0,0.0,52,0.00,,---,0.00,VWS V14.01,2013-04-22 01:44:00,
2013-04-21 20:49:00,60.4,42.7,30.05,NE,55,0.0,0.0,52,0.00,,---,0.00,VWS V14.01,2013-04-22 01:49:00,
2013-04-21 20:54:00,60.1,42.4,30.05,NE,55,0.0,0.0,52,0.00,,---,0.00,VWS V14.01,2013-04-22 01:54:00,
2013-04-21 20:59:00,59.8,42.2,30.05,NE,55,0.0,0.0,52,0.00,,---,0.00,VWS V14.01,2013-04-22 01:59:00,
2013-04-21 21:04:00,59.9,42.2,30.05,NE,55,0.0,0.0,52,0.00,,---,0.00,VWS V14.01,2013-04-22 02:04:00,
2013-04-21 21:09:00,59.8,42.2,30.06,NE,55,0.0,0.0,52,0.00,,---,0.00,VWS V14.01,2013-04-22 02:09:00,
2013-04-21 21:14:00,59.8,43.6,30.06,NE,55,0.0,0.0,55,0.00,,---,0.00,VWS V14.01,2013-04-22 02:14:00,
2013-04-21 21:19:00,59.6,43.4,30.06,NE,55,0.0,0.0,55,0.00,,---,0.00,VWS V14.01,2013-04-22 02:19:00,
2013-04-21 21:24:00,59.6,43.4,30.06,NE,55,0.0,0.0,55,0.00,,---,0.00,VWS V14.01,2013-04-22 02:24:00,
2013-04-21 21:29:00,59.6,43.0,30.06,NE,55,0.0,0.0,54,0.00,,---,0.00,VWS V14.01,2013-04-22 02:29:00,
2013-04-21 21:34:00,59.6,43.0,30.06,NE,55,0.0,0.0,54,0.00,,---,0.00,VWS V14.01,2013-04-22 02:34:00,
2013-04-21 21:39:00,59.6,43.0,30.07,NE,55,0.0,0.0,54,0.00,,---,0.00,VWS V14.01,2013-04-22 02:39:00,
2013-04-21 21:44:00,59.8,43.1,30.07,East,98,0.0,1.0,54,0.00,,---,0.00,VWS V14.01,2013-04-22 02:44:00,
2013-04-21 21:49:00,59.9,43.2,30.07,East,98,0.0,1.0,54,0.00,,---,0.00,VWS V14.01,2013-04-22 02:49:00,
2013-04-21 21:54:00,59.8,43.1,30.07,East,98,0.0,0.0,54,0.00,,---,0.00,VWS V14.01,2013-04-22 02:54:00,
2013-04-21 21:59:00,59.8,43.1,30.07,NE,46,0.0,3.0,54,0.00,,---,0.00,VWS V14.01,2013-04-22 02:59:00,
2013-04-21 22:04:00,59.5,42.9,30.07,East,89,0.0,3.0,54,0.00,,---,0.00,VWS V14.01,2013-04-22 03:04:00,
2013-04-21 22:09:00,59.5,42.9,30.08,East,89,0.0,0.0,54,0.00,,---,0.00,VWS V14.01,2013-04-22 03:09:00,
2013-04-21 22:14:00,59.8,43.1,30.08,East,90,0.0,0.0,54,0.00,,---,0.00,VWS V14.01,2013-04-22 03:14:00,
2013-04-21 22:19:00,59.6,42.5,30.08,East,90,0.0,0.0,53,0.00,,---,0.00,VWS V14.01,2013-04-22 03:19:00,
2013-04-21 22:24:00,59.3,42.2,30.08,East,89,0.0,0.0,53,0.00,,---,0.00,VWS V14.01,2013-04-22 03:24:00,
2013-04-21 22:29:00,59.0,41.9,30.08,East,90,0.0,0.0,53,0.00,,---,0.00,VWS V14.01,2013-04-22 03:29:00,
2013-04-21 22:34:00,59.0,42.4,30.08,NE,55,0.0,2.0,54,0.00,,---,0.00,VWS V14.01,2013-04-22 03:34:00,
2013-04-21 22:39:00,59.2,42.6,30.08,ESE,106,0.0,0.0,54,0.00,,---,0.00,VWS V14.01,2013-04-22 03:39:00,
2013-04-21 22:44:00,59.2,42.6,30.08,ESE,105,0.0,0.0,54,0.00,,---,0.00,VWS V14.01,2013-04-22 03:44:00,
2013-04-21 22:49:00,59.2,42.6,30.08,ESE,105,0.0,0.0,54,0.00,,---,0.00,VWS V14.01,2013-04-22 03:49:00,
2013-04-21 22:54:00,59.2,42.6,30.08,SE,128,4.0,4.0,54,0.00,,---,0.00,VWS V14.01,2013-04-22 03:54:00,
2013-04-21 22:59:00,59.2,42.1,30.08,East,80,0.0,4.0,53,0.00,,---,0.00,VWS V14.01,2013-04-22 03:59:00,
2013-04-21 23:01:00,59.2,41.6,30.08,East,79,2.0,4.0,52,0.00,,---,0.00,VWS V14.01,2013-04-22 04:01:00,
2013-04-21 23:06:00,59.2,41.6,30.08,SE,137,0.0,4.0,52,0.00,,---,0.00,VWS V14.01,2013-04-22 04:06:00,
2013-04-21 23:11:00,59.0,41.4,30.08,East,83,0.0,3.0,52,0.00,,---,0.00,VWS V14.01,2013-04-22 04:11:00,
2013-04-21 23:16:00,58.9,41.3,30.08,ENE,57,0.0,3.0,52,0.00,,---,0.00,VWS V14.01,2013-04-22 04:16:00,
2013-04-21 23:21:00,58.9,41.3,30.08,NNE,22,0.0,3.0,52,0.00,,---,0.00,VWS V14.01,2013-04-22 04:21:00,
2013-04-21 23:26:00,58.9,41.3,30.08,NE,45,0.0,0.0,52,0.00,,---,0.00,VWS V14.01,2013-04-22 04:26:00,
2013-04-21 23:31:00,58.9,41.3,30.08,NE,47,1.0,1.0,52,0.00,,---,0.00,VWS V14.01,2013-04-22 04:31:00,
2013-04-21 23:36:00,58.7,41.1,30.09,South,176,0.0,1.0,52,0.00,,---,0.00,VWS V14.01,2013-04-22 04:36:00,
2013-04-21 23:41:00,58.7,41.1,30.09,South,176,0.0,0.0,52,0.00,,---,0.00,VWS V14.01,2013-04-22 04:41:00,
2013-04-21 23:46:00,58.3,40.8,30.09,ENE,75,0.0,0.0,52,0.00,,---,0.00,VWS V14.01,2013-04-22 04:46:00,
2013-04-21 23:51:00,58.3,40.8,30.09,ENE,76,0.0,0.0,52,0.00,,---,0.00,VWS V14.01,2013-04-22 04:51:00,
2013-04-21 23:56:00,58.1,40.6,30.09,ENE,71,0.0,0.0,52,0.00,,---,0.00,VWS V14.01,2013-04-22 04:56:00,